Map

Track Data

SID SEASON NUMBER BASIN SUBBASIN NAME ISO_TIME NATURE LAT LON WMO_WIND WMO_PRES WMO_AGENCY TRACK_TYPE DIST2LAND LANDFALL IFLAG USA_AGENCY USA_ATCF_ID USA_LAT USA_LON USA_RECORD USA_STATUS USA_WIND USA_PRES USA_SSHS USA_R34_NE USA_R34_SE USA_R34_SW USA_R34_NW USA_R50_NE USA_R50_SE USA_R50_SW USA_R50_NW USA_R64_NE USA_R64_SE USA_R64_SW USA_R64_NW USA_POCI USA_ROCI USA_RMW USA_EYE TOKYO_LAT TOKYO_LON TOKYO_GRADE TOKYO_WIND TOKYO_PRES TOKYO_R50_DIR TOKYO_R50_LONG TOKYO_R50_SHORT TOKYO_R30_DIR TOKYO_R30_LONG TOKYO_R30_SHORT TOKYO_LAND CMA_LAT CMA_LON CMA_CAT CMA_WIND CMA_PRES HKO_LAT HKO_LON HKO_CAT HKO_WIND HKO_PRES NEWDELHI_LAT NEWDELHI_LON NEWDELHI_GRADE NEWDELHI_WIND NEWDELHI_PRES NEWDELHI_CI NEWDELHI_DP NEWDELHI_POCI REUNION_LAT REUNION_LON REUNION_TYPE REUNION_WIND REUNION_PRES REUNION_TNUM REUNION_CI REUNION_RMW REUNION_R34_NE REUNION_R34_SE REUNION_R34_SW REUNION_R34_NW REUNION_R50_NE REUNION_R50_SE REUNION_R50_SW REUNION_R50_NW REUNION_R64_NE REUNION_R64_SE REUNION_R64_SW REUNION_R64_NW BOM_LAT BOM_LON BOM_TYPE BOM_WIND BOM_PRES BOM_TNUM BOM_CI BOM_RMW BOM_R34_NE BOM_R34_SE BOM_R34_SW BOM_R34_NW BOM_R50_NE BOM_R50_SE BOM_R50_SW BOM_R50_NW BOM_R64_NE BOM_R64_SE BOM_R64_SW BOM_R64_NW BOM_ROCI BOM_POCI BOM_EYE BOM_POS_METHOD BOM_PRES_METHOD NADI_LAT NADI_LON NADI_CAT NADI_WIND NADI_PRES WELLINGTON_LAT WELLINGTON_LON WELLINGTON_WIND WELLINGTON_PRES DS824_LAT DS824_LON DS824_STAGE DS824_WIND DS824_PRES TD9636_LAT TD9636_LON TD9636_STAGE TD9636_WIND TD9636_PRES TD9635_LAT TD9635_LON TD9635_WIND TD9635_PRES TD9635_ROCI NEUMANN_LAT NEUMANN_LON NEUMANN_CLASS NEUMANN_WIND NEUMANN_PRES MLC_LAT MLC_LON MLC_CLASS MLC_WIND MLC_PRES USA_GUST BOM_GUST BOM_GUST_PER REUNION_GUST REUNION_GUST_PER USA_SEAHGT USA_SEARAD_NE USA_SEARAD_SE USA_SEARAD_SW USA_SEARAD_NW STORM_SPEED STORM_DIR
1961172N19072 1961 47 NI AS NOT_NAMED 1961-06-20 18:00:00 TS 18.8000 71.5000 main 137 137 O________O____ jtwc_io IO081961 18.8000 71.5000 -1 18.8000 71.5000 TC 3 286
1961172N19072 1961 47 NI AS NOT_NAMED 1961-06-20 21:00:00 TS 18.8400 71.3550 main 147 147 P________P____ IO081961 18.8400 71.3550 -1 18.8400 71.3550 TC 3 289
1961172N19072 1961 47 NI AS NOT_NAMED 1961-06-21 00:00:00 TS 18.9000 71.2000 main 168 168 O________O____ jtwc_io IO081961 18.9000 71.2000 -1 18.9000 71.2000 TC 25 4 296
1961172N19072 1961 47 NI AS NOT_NAMED 1961-06-21 03:00:00 TS 18.9933 71.0200 main 187 178 P________PO___ IO081961 18.9924 71.0225 -1 18.9924 71.0225 TC 25 19.0000 71.0000 1 4 298
1961172N19072 1961 47 NI AS NOT_NAMED 1961-06-21 06:00:00 TS 19.1026 70.7891 main 178 169 O________OP___ jtwc_io IO081961 19.1000 70.8000 -1 19.1000 70.8000 TC 25 19.1128 70.7455 1 5 292
1961172N19072 1961 47 NI AS NOT_NAMED 1961-06-21 09:00:00 TS 19.1974 70.4980 main 170 162 P________PP___ IO081961 19.1851 70.5000 -1 19.1851 70.5000 TC 25 19.2303 70.4927 1 6 292
1961172N19072 1961 47 NI AS NOT_NAMED 1961-06-21 12:00:00 TS 19.3192 70.2145 main 168 158 O________OP___ jtwc_io IO081961 19.3000 70.2000 -1 19.3000 70.2000 TC 25 19.3577 70.2435 1 6 302
1961172N19072 1961 47 NI AS NOT_NAMED 1961-06-21 15:00:00 TS 19.4949 69.9950 main 158 152 P________PO___ IO081961 19.4924 69.9925 -1 19.4924 69.9925 TC 25 19.5000 70.0000 1 5 313
1961172N19072 1961 47 NI AS NOT_NAMED 1961-06-21 18:00:00 TS 19.6868 69.7879 main 152 148 O________OP___ jtwc_io IO081961 19.7000 69.8000 -1 19.7000 69.8000 TC 25 19.6605 69.7637 1 6 310
1961172N19072 1961 47 NI AS NOT_NAMED 1961-06-21 21:00:00 TS 19.8450 69.5449 main 161 148 P________PP___ IO081961 19.8500 69.5499 -1 19.8500 69.5499 TC 25 19.8349 69.5349 1 6 305
1961172N19072 1961 47 NI AS NOT_NAMED 1961-06-22 00:00:00 TS 20.0056 69.3046 main 154 152 O________OP___ jtwc_io IO081961 20.0000 69.3000 -1 20.0000 69.3000 TC 25 20.0168 69.3137 1 6 310
1961172N19072 1961 47 NI AS NOT_NAMED 1961-06-22 03:00:00 TS 20.2000 69.0950 main 152 152 P________PO___ IO081961 20.1999 69.0925 -1 20.1999 69.0925 TC 25 20.2000 69.1000 1 5 315
1961172N19072 1961 47 NI AS NOT_NAMED 1961-06-22 06:00:00 TS 20.3917 68.8908 main 152 152 O________OP___ jtwc_io IO081961 20.4000 68.9000 -1 20.4000 68.9000 TC 25 20.3750 68.8725 1 5 312
1961172N19072 1961 47 NI AS NOT_NAMED 1961-06-22 09:00:00 TS 20.5500 68.6800 main 152 152 P________PP___ IO081961 20.5500 68.6924 -1 20.5500 68.6924 TC 25 20.5501 68.6550 1 5 310
1961172N19072 1961 47 NI AS NOT_NAMED 1961-06-22 12:00:00 TS 20.7083 68.4867 main 159 151 O________OP___ jtwc_io IO081961 20.7000 68.5000 -1 20.7000 68.5000 TC 25 20.7250 68.4600 1 5 316
1961172N19072 1961 47 NI AS NOT_NAMED 1961-06-22 15:00:00 TS 20.9000 68.3233 main 159 151 P________PO___ IO081961 20.9000 68.3350 -1 20.9000 68.3350 TC 25 20.9000 68.3000 1 5 323
1961172N19072 1961 47 NI AS NOT_NAMED 1961-06-22 18:00:00 TS 21.0781 68.1896 main 151 148 O________OP___ jtwc_io IO081961 21.1000 68.2000 -1 21.1000 68.2000 TC 25 21.0343 68.1687 1 4 324
1961172N19072 1961 47 NI AS NOT_NAMED 1961-06-22 21:00:00 TS 21.2200 68.0767 main 148 136 P________PP___ IO081961 21.2425 68.0775 -1 21.2425 68.0775 TC 30 21.1749 68.0750 1 4 331
1961172N19072 1961 47 NI AS NOT_NAMED 1961-06-23 00:00:00 TS 21.3844 68.0063 main 136 121 O________OP___ jtwc_io IO081961 21.4000 68.0000 -1 21.4000 68.0000 TC 35 21.3531 68.0188 1 4 349
1961172N19072 1961 47 NI AS NOT_NAMED 1961-06-23 03:00:00 TS 21.5983 67.9900 main 121 102 P________PO___ IO081961 21.5975 67.9850 -1 21.5975 67.9850 TC 35 21.6000 68.0000 2 6 0
1961172N19072 1961 47 NI AS NOT_NAMED 1961-06-23 06:00:00 TS 21.9312 67.9899 main 102 92 O________OP___ jtwc_io IO081961 21.9000 68.0000 -1 21.9000 68.0000 TC 35 21.9935 67.9696 2 8 0
1961172N19072 1961 47 NI AS NOT_NAMED 1961-06-23 09:00:00 TS 22.4115 67.9687 main 93 69 P________PP___ IO081961 22.3924 67.9628 -1 22.3924 67.9628 TC 35 22.4496 67.9803 2 10 0
1961172N19072 1961 47 NI AS NOT_NAMED 1961-06-23 12:00:00 TS 22.9020 68.0169 main 69 30 O________OP___ jtwc_io IO081961 22.9000 68.0000 -1 22.9000 68.0000 TC 35 22.9059 68.0508 2 9 14
1961172N19072 1961 47 NI AS NOT_NAMED 1961-06-23 15:00:00 TS 23.2683 68.2032 main 30 0 P________PO___ IO081961 23.2525 68.2048 -1 23.2525 68.2048 TC 35 23.3000 68.2000 3 7 35
1961172N19072 1961 47 NI AS NOT_NAMED 1961-06-23 18:00:00 TS 23.5116 68.4794 main 0 0 O________OP___ jtwc_io IO081961 23.5000 68.5000 -1 23.5000 68.5000 TC 35 23.5349 68.4381 3 7 52
1961172N19072 1961 47 NI AS NOT_NAMED 1961-06-23 21:00:00 TS 23.6725 68.7696 main 0 0 P________PP___ IO081961 23.6574 68.7779 -1 23.6574 68.7779 TC 30 23.7027 68.7532 3 6 62
1961172N19072 1961 47 NI AS NOT_NAMED 1961-06-24 00:00:00 TS 23.8147 69.1055 main 0 0 O________OP___ jtwc_io IO081961 23.8000 69.1000 -1 23.8000 69.1000 TC 25 23.8442 69.1166 3 8 62
1961172N19072 1961 47 NI AS NOT_NAMED 1961-06-24 03:00:00 TS 24.0234 69.4949 main 0 0 P________PO___ IO081961 24.0351 69.4924 -1 24.0351 69.4924 TC 25 24.0000 69.5000 1 9 57
1961172N19072 1961 47 NI AS NOT_NAMED 1961-06-24 06:00:00 TS 24.2816 69.8908 main 0 0 O________OP___ jtwc_io IO081961 24.3000 69.9000 -1 24.3000 69.9000 TC 25 24.2448 69.8723 1 9 53
1961172N19072 1961 47 NI AS NOT_NAMED 1961-06-24 09:00:00 TS 24.5408 70.2574 main 0 0 P________PP___ IO081961 24.5574 70.2576 -1 24.5574 70.2576 TC 25 24.5077 70.2568 1 8 52
1961172N19072 1961 47 NI AS NOT_NAMED 1961-06-24 12:00:00 TS 24.7889 70.6126 main 0 0 O________OP___ jtwc_io IO081961 24.8000 70.6000 -1 24.8000 70.6000 TC 25 24.7667 70.6380 1 8 54
1961172N19072 1961 47 NI AS NOT_NAMED 1961-06-24 15:00:00 TS 25.0099 70.9667 main 0 0 P________PO___ IO081961 25.0149 70.9501 -1 25.0149 70.9501 TC 25 25.0000 71.0000 1 8 58
1961172N19072 1961 47 NI AS NOT_NAMED 1961-06-24 18:00:00 TS 25.1942 71.3155 main 0 0 O________OP___ jtwc_io IO081961 25.2000 71.3000 -1 25.2000 71.3000 TC 25 25.1827 71.3464 1 7 61
1961172N19072 1961 47 NI AS NOT_NAMED 1961-06-24 21:00:00 TS 25.3558 71.6710 main 0 0 P________PP___ IO081961 25.3651 71.6725 -1 25.3651 71.6725 TC 25 25.3374 71.6680 1 7 64
1961172N19072 1961 47 NI AS NOT_NAMED 1961-06-25 00:00:00 TS 25.4911 71.9852 main 0 0 O________OP___ jtwc_io IO081961 25.5000 72.0000 -1 25.5000 72.0000 TC 25 25.4734 71.9556 1 6 64
1961172N19072 1961 47 NI AS NOT_NAMED 1961-06-25 03:00:00 TS 25.5999 72.2201 main 0 0 P________PO___ IO081961 25.5999 72.2302 -1 25.5999 72.2302 TC 25 25.6000 72.2000 1 4 60
1961172N19072 1961 47 NI AS NOT_NAMED 1961-06-25 06:00:00 TS 25.7106 72.4005 main 0 0 O________OP___ jtwc_io IO081961 25.7000 72.4000 -1 25.7000 72.4000 TC 25 25.7319 72.4016 1 4 50
1961172N19072 1961 47 NI AS NOT_NAMED 1961-06-25 09:00:00 TS 25.8524 72.5585 main 0 0 P________PP___ IO081961 25.8500 72.5575 -1 25.8500 72.5575 TC 25 25.8571 72.5604 1 4 43
1961172N19072 1961 47 NI AS NOT_NAMED 1961-06-25 12:00:00 TS 25.9930 72.6963 main 0 0 O________OP___ jtwc_io IO081961 26.0000 72.7000 -1 26.0000 72.7000 TC 25 25.9788 72.6890 1 4 45
1961172N19072 1961 47 NI AS NOT_NAMED 1961-06-25 15:00:00 TS 26.1000 72.8384 main 0 0 P________PO___ IO081961 26.1000 72.8576 -1 26.1000 72.8576 TC 25 26.1000 72.8000 1 3 51
1961172N19072 1961 47 NI AS NOT_NAMED 1961-06-25 18:00:00 TS 26.2056 72.9890 main 0 0 O________OP___ jtwc_io IO081961 26.2000 73.0000 -1 26.2000 73.0000 TC 25 26.2168 72.9669 1 4 47
1961172N19072 1961 47 NI AS NOT_NAMED 1961-06-25 21:00:00 TS 26.3449 73.1289 main 0 0 P________PP___ IO081961 26.3500 73.1374 -1 26.3500 73.1374 TC 25 26.3348 73.1119 1 3 34
1961172N19072 1961 47 NI AS NOT_NAMED 1961-06-26 00:00:00 TS 26.4868 73.2004 main 0 0 O________OP___ jtwc_io IO081961 26.5000 73.2000 -1 26.5000 73.2000 TC 25 26.4604 73.2011 1 3 9
1961172N19072 1961 47 NI AS NOT_NAMED 1961-06-26 03:00:00 TS 26.5950 73.1683 main 0 0 P________PO___ IO081961 26.5924 73.1524 -1 26.5924 73.1524 TC 25 26.6000 73.2000 1 3 326
1961172N19072 1961 47 NI AS NOT_NAMED 1961-06-26 06:00:00 TS 26.7216 73.0216 main 0 0 O________OP___ jtwc_io IO081961 26.7000 73.0000 -1 26.7000 73.0000 TC 25 26.7649 73.0649 1 5 312
1961172N19072 1961 47 NI AS NOT_NAMED 1961-06-26 09:00:00 TS 26.9044 72.7903 main 0 0 P________PP___ IO081961 26.8851 72.7651 -1 26.8851 72.7651 TC 25 26.9429 72.8408 1 6 311
1961172N19072 1961 47 NI AS NOT_NAMED 1961-06-26 12:00:00 TS 27.1081 72.5237 main 0 0 O________OP___ jtwc_io IO081961 27.1000 72.5000 -1 27.1000 72.5000 TC 25 27.1244 72.5711 1 6 312
1961172N19072 1961 47 NI AS NOT_NAMED 1961-06-26 15:00:00 TS 27.3050 72.2950 main 0 0 P________PO___ IO081961 27.3074 72.2924 -1 27.3074 72.2924 TC 25 27.3000 72.3000 1 5 314
1961172N19072 1961 47 NI AS NOT_NAMED 1961-06-26 18:00:00 TS 27.4852 72.0850 main 0 0 O________OP___ jtwc_io IO081961 27.5000 72.1000 -1 27.5000 72.1000 TC 25 27.4629 72.0626 1 5 313
1961172N19072 1961 47 NI AS NOT_NAMED 1961-06-26 21:00:00 TS 27.6407 71.8832 main 0 0 P________PP___ IO081961 27.6601 71.9026 -1 27.6601 71.9026 TC 25 27.6148 71.8573 1 5 310
1961172N19072 1961 47 NI AS NOT_NAMED 1961-06-27 00:00:00 TS 27.7796 71.6867 main 0 0 O________OP___ jtwc_io IO081961 27.8000 71.7000 -1 27.8000 71.7000 TC 25 27.7593 71.6734 1 4 307
1961172N19072 1961 47 NI AS NOT_NAMED 1961-06-27 03:00:00 NR 27.9000 71.5000 main 0 __________O___ IO081961 -1 TC 27.9000 71.5000 1 4 307

About IBTrACS Database

This database is a web-friendly format of International Best Track Archive for Climate Stewardship (IBTrACS), a global best track data archive curated by NOAA dating back to 1842.

Updated: 2021-10-21